Time;durP1;ratioP1;P1;durP2;ratioP2;P2;SDS_P1;SDS_P2;PMS_P1;PMS_P2;Temp;Humidity;BMP_temperature;BMP_pressure;BME280_temperature;BME280_humidity;BME280_pressure;Samples;Min_cycle;Max_cycle;Signal;HPM_P1;HPM_P2
2021/12/11 00:01:16;;;;;;;0.70;0.70;;;3.70;99.90;;;;;;1911633;73;21152;-75
2021/12/11 00:03:39;;;;;;;1.37;0.80;;;3.60;99.90;;;;;;1915525;74;21123;-74
2021/12/11 00:06:06;;;;;;;0.55;0.55;;;3.60;99.90;;;;;;1918828;73;21078;-74
2021/12/11 00:08:32;;;;;;;1.65;0.88;;;3.60;99.90;;;;;;1922137;73;21164;-74
2021/12/11 00:10:58;;;;;;;0.60;0.60;;;3.60;99.90;;;;;;1915717;74;21129;-74
2021/12/11 00:13:24;;;;;;;55.80;1.42;;;3.60;99.90;;;;;;1921035;74;21052;-75
2021/12/11 00:15:50;;;;;;;1.20;0.70;;;3.60;99.90;;;;;;1920813;73;21465;-72
2021/12/11 00:18:16;;;;;;;1.07;0.60;;;3.60;99.90;;;;;;1925418;73;21054;-74
2021/12/11 00:20:42;;;;;;;1.12;0.80;;;3.70;99.90;;;;;;1918322;73;21246;-74
2021/12/11 00:23:09;;;;;;;0.85;0.62;;;3.60;99.90;;;;;;1916197;74;21075;-75
2021/12/11 00:25:35;;;;;;;0.98;0.75;;;3.70;99.90;;;;;;1888336;74;21269;-74
2021/12/11 00:28:01;;;;;;;0.88;0.80;;;3.80;99.90;;;;;;1921016;73;21125;-73
2021/12/11 00:30:27;;;;;;;1.30;0.80;;;3.80;99.90;;;;;;1918987;73;21055;-73
2021/12/11 00:32:53;;;;;;;0.70;0.70;;;3.80;99.90;;;;;;1920369;72;21062;-74
2021/12/11 00:35:23;;;;;;;1.05;0.70;;;3.70;99.90;;;;;;1923018;73;21082;-73
2021/12/11 00:37:47;;;;;;;0.85;0.53;;;3.80;99.90;;;;;;1914573;74;21274;-75
2021/12/11 00:40:13;;;;;;;1.15;0.45;;;3.70;99.90;;;;;;1924526;72;21082;-74
2021/12/11 00:42:39;;;;;;;1.07;0.50;;;3.80;99.90;;;;;;1904132;72;21237;-73
2021/12/11 00:45:05;;;;;;;0.40;0.40;;;3.70;99.90;;;;;;1921555;74;21147;-74
2021/12/11 00:47:31;;;;;;;4.70;0.50;;;3.80;99.90;;;;;;1916689;74;21059;-73
2021/12/11 00:49:58;;;;;;;2.65;0.78;;;3.80;99.90;;;;;;1924578;73;21043;-74
2021/12/11 00:52:24;;;;;;;2.27;0.60;;;3.80;99.90;;;;;;1919671;74;21081;-74
2021/12/11 00:54:50;;;;;;;0.50;0.50;;;3.80;99.90;;;;;;1919482;73;21156;-74
2021/12/11 00:57:16;;;;;;;0.40;0.40;;;3.80;99.90;;;;;;1919764;73;21090;-75
2021/12/11 00:59:42;;;;;;;0.72;0.60;;;3.80;99.90;;;;;;1919340;73;21078;-73
2021/12/11 01:02:08;;;;;;;2.05;0.70;;;3.80;99.90;;;;;;1919424;74;21543;-73
2021/12/11 01:04:40;;;;;;;0.50;0.50;;;3.80;99.90;;;;;;1921294;73;21482;-74
2021/12/11 01:07:02;;;;;;;2.02;0.75;;;3.80;99.90;;;;;;1921361;74;21090;-73
2021/12/11 01:09:28;;;;;;;1.42;0.78;;;3.80;99.90;;;;;;1922666;72;21080;-72
2021/12/11 01:11:58;;;;;;;0.68;0.62;;;3.80;99.90;;;;;;1921882;73;21043;-74
2021/12/11 01:14:28;;;;;;;0.60;0.60;;;3.90;99.90;;;;;;1922197;73;21579;-74
2021/12/11 01:16:50;;;;;;;0.75;0.65;;;3.90;99.90;;;;;;1915757;74;21081;-73
2021/12/11 01:19:19;;;;;;;1.15;0.50;;;3.90;99.90;;;;;;1920340;72;21148;-73
2021/12/11 01:21:54;;;;;;;1.32;0.80;;;3.90;99.90;;;;;;1924071;72;21140;-74
2021/12/11 01:24:16;;;;;;;2.33;1.25;;;3.90;99.90;;;;;;1919316;74;21089;-74
2021/12/11 01:26:39;;;;;;;1.20;1.10;;;3.90;99.90;;;;;;1922349;73;21671;-74
2021/12/11 01:29:06;;;;;;;0.68;0.65;;;3.90;99.90;;;;;;1923443;73;21482;-73
2021/12/11 01:31:32;;;;;;;1.00;0.93;;;3.80;99.90;;;;;;1913588;73;21560;-74
2021/12/11 01:33:58;;;;;;;0.93;0.90;;;3.90;99.90;;;;;;1922193;74;21043;-73
2021/12/11 01:36:24;;;;;;;1.10;0.90;;;3.90;99.90;;;;;;1906811;73;21152;-73
2021/12/11 01:38:50;;;;;;;1.67;1.00;;;3.80;99.90;;;;;;1920787;73;21156;-74
2021/12/11 01:41:16;;;;;;;0.72;0.72;;;3.80;99.90;;;;;;1921629;73;21078;-73
2021/12/11 01:43:43;;;;;;;0.70;0.70;;;3.80;99.90;;;;;;1913893;72;21082;-73
2021/12/11 01:46:09;;;;;;;0.80;0.78;;;3.70;99.90;;;;;;1919740;72;21085;-74
2021/12/11 01:48:35;;;;;;;0.50;0.50;;;3.70;99.90;;;;;;1916863;73;21164;-74
2021/12/11 01:51:01;;;;;;;0.72;0.72;;;3.60;99.90;;;;;;1915842;74;21450;-73
2021/12/11 01:53:27;;;;;;;0.60;0.57;;;3.50;99.90;;;;;;1920412;74;21658;-73
2021/12/11 01:55:54;;;;;;;0.85;0.55;;;3.50;99.90;;;;;;1916272;72;21051;-73
2021/12/11 01:58:20;;;;;;;0.78;0.78;;;3.30;99.90;;;;;;1920358;73;21782;-73
2021/12/11 02:00:46;;;;;;;0.60;0.60;;;3.30;99.90;;;;;;1917597;73;21462;-74
2021/12/11 02:03:12;;;;;;;0.60;0.60;;;3.30;99.90;;;;;;1921163;72;21436;-74
2021/12/11 02:05:38;;;;;;;0.65;0.60;;;3.20;99.90;;;;;;1917863;73;21151;-73
2021/12/11 02:08:05;;;;;;;0.78;0.60;;;3.10;99.90;;;;;;1923276;73;21078;-74
2021/12/11 02:10:33;;;;;;;1.00;0.80;;;3.00;99.90;;;;;;1922939;73;21070;-74
2021/12/11 02:12:59;;;;;;;1.42;0.93;;;3.00;99.90;;;;;;1921984;73;21629;-74
2021/12/11 02:15:29;;;;;;;0.70;0.70;;;2.90;99.90;;;;;;1920845;73;21082;-74
2021/12/11 02:17:53;;;;;;;0.95;0.80;;;2.80;99.90;;;;;;1920681;73;21254;-74
2021/12/11 02:20:19;;;;;;;0.70;0.70;;;2.80;99.90;;;;;;1925349;72;21203;-75
2021/12/11 02:22:46;;;;;;;0.70;0.70;;;2.80;99.90;;;;;;1917946;74;21164;-73
2021/12/11 02:25:12;;;;;;;1.05;0.82;;;2.80;99.90;;;;;;1918452;73;21082;-74
2021/12/11 02:27:38;;;;;;;1.35;0.68;;;2.80;99.90;;;;;;1924770;73;21047;-73
2021/12/11 02:30:05;;;;;;;4.22;0.98;;;2.70;99.90;;;;;;1919929;73;21075;-73
2021/12/11 02:32:32;;;;;;;1.77;0.80;;;2.70;99.90;;;;;;1920487;72;21155;-74
2021/12/11 02:34:58;;;;;;;0.45;0.45;;;2.70;99.90;;;;;;1920330;74;21161;-74
2021/12/11 02:37:24;;;;;;;0.60;0.60;;;2.70;99.90;;;;;;1916795;73;21160;-74
2021/12/11 02:39:50;;;;;;;0.50;0.50;;;2.70;99.90;;;;;;1921776;73;21070;-75
2021/12/11 02:42:17;;;;;;;0.70;0.70;;;2.60;99.90;;;;;;1916882;73;21082;-75
2021/12/11 02:44:43;;;;;;;0.50;0.50;;;2.60;99.90;;;;;;1917020;73;21164;-75
2021/12/11 02:47:09;;;;;;;0.37;0.37;;;2.60;99.90;;;;;;1921497;72;21051;-74
2021/12/11 02:49:35;;;;;;;0.42;0.42;;;2.60;99.90;;;;;;1920803;73;21477;-74
2021/12/11 02:52:01;;;;;;;1.10;0.50;;;2.60;99.90;;;;;;1922763;74;21501;-73
2021/12/11 02:54:28;;;;;;;0.50;0.50;;;2.50;99.90;;;;;;1923298;73;21478;-74
2021/12/11 02:56:54;;;;;;;0.42;0.40;;;2.50;99.90;;;;;;1918305;73;21221;-74
2021/12/11 02:59:23;;;;;;;0.53;0.53;;;2.50;99.90;;;;;;1923764;73;21082;-74
2021/12/11 03:01:48;;;;;;;0.90;0.40;;;2.50;99.90;;;;;;1921165;73;21184;-74
2021/12/11 03:04:25;;;;;;;0.60;0.60;;;2.50;99.90;;;;;;1917020;72;21086;-73
2021/12/11 03:06:49;;;;;;;0.50;0.50;;;2.50;99.90;;;;;;1914201;74;21296;-74
2021/12/11 03:09:16;;;;;;;2.50;0.60;;;2.50;99.90;;;;;;1922280;73;21492;-74
2021/12/11 03:11:42;;;;;;;0.50;0.50;;;2.50;99.90;;;;;;1921033;72;21078;-74
2021/12/11 03:14:12;;;;;;;0.70;0.60;;;2.60;99.90;;;;;;1921330;73;21148;-75
2021/12/11 03:16:36;;;;;;;0.70;0.70;;;2.50;99.90;;;;;;1920599;73;21513;-74
2021/12/11 03:19:02;;;;;;;1.30;0.85;;;2.60;99.90;;;;;;1917890;73;21584;-74
2021/12/11 03:21:28;;;;;;;0.80;0.80;;;2.70;99.90;;;;;;1924634;73;21537;-73
2021/12/11 03:23:54;;;;;;;0.85;0.80;;;2.60;99.90;;;;;;1922328;73;21083;-73
2021/12/11 03:26:20;;;;;;;0.70;0.60;;;2.60;99.90;;;;;;1913862;74;21082;-73
2021/12/11 03:28:46;;;;;;;1.57;0.80;;;2.60;99.90;;;;;;1921390;73;21055;-74
2021/12/11 03:31:12;;;;;;;0.62;0.62;;;2.60;99.90;;;;;;1890496;74;21056;-74
2021/12/11 03:33:38;;;;;;;0.62;0.62;;;2.60;99.90;;;;;;1921235;73;21077;-74
2021/12/11 03:36:04;;;;;;;0.65;0.65;;;2.60;99.90;;;;;;1917083;74;21078;-74
2021/12/11 03:38:31;;;;;;;0.70;0.70;;;2.60;99.90;;;;;;1921116;73;21074;-73
2021/12/11 03:40:57;;;;;;;0.80;0.80;;;2.60;99.90;;;;;;1922022;73;21152;-73
2021/12/11 03:43:23;;;;;;;2.00;0.90;;;2.70;99.90;;;;;;1921183;74;21090;-74
2021/12/11 03:45:49;;;;;;;1.12;1.02;;;2.70;99.90;;;;;;1921396;74;21047;-74
2021/12/11 03:48:15;;;;;;;1.02;1.00;;;2.70;99.90;;;;;;1922907;74;21151;-74
2021/12/11 03:50:41;;;;;;;1.37;1.00;;;2.70;99.90;;;;;;1918543;74;21543;-74
2021/12/11 03:53:07;;;;;;;1.52;1.00;;;2.60;99.90;;;;;;1918853;74;21584;-75
2021/12/11 03:55:33;;;;;;;1.12;1.05;;;2.70;99.90;;;;;;1920427;73;21773;-74
2021/12/11 03:58:01;;;;;;;0.90;0.90;;;2.70;99.90;;;;;;1920461;72;21145;-74
2021/12/11 04:00:27;;;;;;;1.15;1.05;;;2.80;99.90;;;;;;1918866;73;21091;-74
2021/12/11 04:03:00;;;;;;;1.35;1.25;;;2.80;99.90;;;;;;1918419;73;21197;-74
2021/12/11 04:05:22;;;;;;;2.10;1.10;;;2.80;99.90;;;;;;1915727;73;21148;-74
2021/12/11 04:07:50;;;;;;;1.00;1.00;;;2.80;99.90;;;;;;1919783;73;21086;-74
2021/12/11 04:10:16;;;;;;;2.15;1.27;;;2.80;99.90;;;;;;1921018;73;21490;-73
2021/12/11 04:12:42;;;;;;;1.12;1.12;;;2.80;99.90;;;;;;1917870;73;21459;-75
2021/12/11 04:15:08;;;;;;;2.17;1.20;;;2.80;99.90;;;;;;1919352;73;21533;-73
2021/12/11 04:17:34;;;;;;;1.07;1.02;;;2.80;99.90;;;;;;1920206;73;21171;-75
2021/12/11 04:20:00;;;;;;;1.35;1.25;;;2.80;99.90;;;;;;1924271;73;21153;-73
2021/12/11 04:22:26;;;;;;;1.55;1.27;;;2.90;99.90;;;;;;1919899;74;21277;-74
2021/12/11 04:24:53;;;;;;;1.52;1.42;;;2.90;99.90;;;;;;1922841;74;21070;-74
2021/12/11 04:27:19;;;;;;;1.25;1.15;;;2.90;99.90;;;;;;1922181;73;21106;-74
2021/12/11 04:29:47;;;;;;;1.25;1.25;;;2.90;99.90;;;;;;1918546;74;21048;-73
2021/12/11 04:32:13;;;;;;;1.00;1.00;;;2.90;99.90;;;;;;1920111;73;21229;-75
2021/12/11 04:34:39;;;;;;;1.40;1.30;;;2.90;99.90;;;;;;1924286;73;21074;-74
2021/12/11 04:37:11;;;;;;;2.33;1.32;;;2.90;99.90;;;;;;1923352;73;21144;-73
2021/12/11 04:39:36;;;;;;;1.52;1.42;;;2.90;99.90;;;;;;1914509;73;21423;-74
2021/12/11 04:42:12;;;;;;;1.30;1.20;;;2.90;99.90;;;;;;1920663;73;21202;-74
2021/12/11 04:44:34;;;;;;;1.42;1.32;;;2.90;99.90;;;;;;1917754;73;21493;-74
2021/12/11 04:46:59;;;;;;;1.65;1.52;;;2.90;99.90;;;;;;1922158;73;21126;-75
2021/12/11 04:49:41;;;;;;;1.25;1.15;;;2.90;99.90;;;;;;1924081;73;21068;-74
2021/12/11 04:52:11;;;;;;;1.70;1.60;;;2.90;99.90;;;;;;1912205;73;21154;-75
2021/12/11 04:54:58;;;;;;;1.95;1.20;;;2.90;99.90;;;;;;1910966;73;21189;-74
2021/12/11 05:00:07;;;;;;;1.67;1.50;;;2.80;99.90;;;;;;1919965;73;21462;-74
2021/12/11 05:05:13;;;;;;;1.95;1.85;;;2.80;99.90;;;;;;1921718;72;21450;-74
2021/12/11 05:10:03;;;;;;;2.08;1.87;;;2.90;99.90;;;;;;1862738;73;21085;-74
2021/12/11 05:14:53;;;;;;;1.98;1.87;;;2.90;99.90;;;;;;1918988;73;21521;-74
2021/12/11 05:17:19;;;;;;;1.90;1.80;;;2.90;99.90;;;;;;1922460;73;21150;-74
2021/12/11 05:19:45;;;;;;;2.72;2.20;;;2.90;99.90;;;;;;1922718;73;21099;-74
2021/12/11 05:22:12;;;;;;;3.45;2.60;;;3.00;99.90;;;;;;1922560;74;21051;-74
2021/12/11 05:24:38;;;;;;;3.50;2.67;;;2.90;99.90;;;;;;1924747;73;21161;-74
2021/12/11 05:27:04;;;;;;;3.30;2.65;;;3.00;99.90;;;;;;1923517;73;21043;-73
2021/12/11 05:29:30;;;;;;;2.70;2.50;;;3.00;99.90;;;;;;1920956;74;21144;-74
2021/12/11 05:31:56;;;;;;;2.60;2.40;;;2.90;99.90;;;;;;1923545;73;21078;-73
2021/12/11 05:34:22;;;;;;;2.52;2.33;;;3.00;99.90;;;;;;1921200;73;21353;-74
2021/12/11 05:36:48;;;;;;;4.50;3.00;;;3.00;99.90;;;;;;1919802;73;21082;-73
2021/12/11 05:39:14;;;;;;;4.45;2.60;;;3.00;99.90;;;;;;1921419;73;21047;-73
2021/12/11 05:41:40;;;;;;;2.37;2.25;;;3.00;99.90;;;;;;1923573;72;21077;-73
2021/12/11 05:44:07;;;;;;;2.55;2.35;;;2.90;99.90;;;;;;1922242;74;21213;-74
2021/12/11 05:46:33;;;;;;;3.05;2.85;;;3.00;99.90;;;;;;1924232;73;21086;-73
2021/12/11 05:48:59;;;;;;;2.33;2.12;;;3.00;99.90;;;;;;1924705;74;21086;-75
2021/12/11 05:51:25;;;;;;;3.33;2.80;;;3.00;99.90;;;;;;1921914;73;21469;-73
2021/12/11 05:53:53;;;;;;;2.87;2.67;;;3.00;99.90;;;;;;1921551;73;21074;-73
2021/12/11 05:56:19;;;;;;;2.67;2.47;;;3.00;99.90;;;;;;1923731;74;21159;-74
2021/12/11 06:01:19;;;;;;;3.45;2.37;;;3.00;99.90;;;;;;1917661;74;21113;-74
2021/12/11 06:03:45;;;;;;;2.87;2.67;;;3.00;99.90;;;;;;1921796;73;21160;-74
2021/12/11 06:06:11;;;;;;;2.52;2.40;;;2.90;99.90;;;;;;1921871;72;21051;-74
2021/12/11 06:08:37;;;;;;;2.83;2.50;;;2.90;99.90;;;;;;1923739;73;21074;-74
2021/12/11 06:11:03;;;;;;;2.50;2.30;;;3.00;99.90;;;;;;1921533;72;21167;-75
2021/12/11 06:13:30;;;;;;;3.12;2.83;;;3.00;99.90;;;;;;1919551;73;21567;-73
2021/12/11 06:15:56;;;;;;;2.70;2.50;;;2.90;99.90;;;;;;1919745;73;21093;-73
2021/12/11 06:18:22;;;;;;;3.12;2.75;;;3.00;99.90;;;;;;1918611;73;21259;-73
2021/12/11 06:20:48;;;;;;;2.70;2.52;;;3.00;99.90;;;;;;1920210;72;21276;-74
2021/12/11 06:23:15;;;;;;;2.50;2.37;;;3.00;99.90;;;;;;1919784;73;21485;-74
2021/12/11 06:25:41;;;;;;;2.80;2.60;;;3.00;99.90;;;;;;1919287;74;21442;-73
2021/12/11 06:28:07;;;;;;;2.67;2.47;;;3.00;99.90;;;;;;1914663;74;21493;-74
2021/12/11 06:30:33;;;;;;;2.65;2.33;;;3.00;99.90;;;;;;1918225;73;21078;-73
2021/12/11 06:32:59;;;;;;;3.60;2.92;;;3.00;99.90;;;;;;1920199;74;21195;-74
2021/12/11 06:35:25;;;;;;;2.87;2.67;;;3.00;99.90;;;;;;1922054;73;21081;-74
2021/12/11 06:37:51;;;;;;;2.47;2.30;;;3.00;99.90;;;;;;1918226;74;21155;-73
2021/12/11 06:40:17;;;;;;;3.27;2.58;;;3.00;99.90;;;;;;1918248;73;21164;-74
2021/12/11 06:42:43;;;;;;;2.62;2.42;;;3.10;99.90;;;;;;1916711;72;21047;-74
2021/12/11 06:45:10;;;;;;;2.30;2.15;;;3.00;99.90;;;;;;1919896;74;21058;-73
2021/12/11 06:47:36;;;;;;;3.30;3.00;;;3.00;99.90;;;;;;1921110;73;21151;-73
2021/12/11 06:50:02;;;;;;;2.80;2.60;;;3.00;99.90;;;;;;1922850;73;21082;-73
2021/12/11 06:52:28;;;;;;;4.17;3.05;;;3.00;99.90;;;;;;1922139;74;21086;-74
2021/12/11 06:54:54;;;;;;;3.20;3.00;;;2.90;99.90;;;;;;1921463;72;21269;-73
2021/12/11 06:57:20;;;;;;;3.47;3.17;;;3.00;99.90;;;;;;1918707;72;21486;-74
2021/12/11 06:59:47;;;;;;;5.10;3.25;;;3.00;99.90;;;;;;1923619;73;21462;-74
2021/12/11 07:02:13;;;;;;;4.67;4.05;;;3.00;99.90;;;;;;1917563;73;21118;-74
2021/12/11 07:04:39;;;;;;;5.37;4.50;;;3.00;99.90;;;;;;1920189;73;21117;-74
2021/12/11 07:07:05;;;;;;;4.90;4.40;;;3.00;99.90;;;;;;1922367;72;21140;-74
2021/12/11 07:09:31;;;;;;;4.72;4.33;;;3.00;99.90;;;;;;1923935;73;21151;-75
2021/12/11 07:11:58;;;;;;;7.85;4.92;;;3.00;99.90;;;;;;1924633;73;21082;-74
2021/12/11 07:14:24;;;;;;;5.67;5.12;;;3.00;99.90;;;;;;1923244;73;21164;-74
2021/12/11 07:19:35;;;;;;;6.62;6.00;;;3.00;99.90;;;;;;1933001;72;21149;-76
2021/12/11 07:22:01;;;;;;;7.65;5.65;;;3.00;99.90;;;;;;1935286;72;21127;-76
2021/12/11 07:24:30;;;;;;;6.22;5.62;;;3.10;99.90;;;;;;1941796;72;21053;-75
2021/12/11 07:26:55;;;;;;;7.17;6.47;;;3.10;99.90;;;;;;1941676;71;21122;-77
2021/12/11 07:29:21;;;;;;;7.60;5.80;;;3.10;99.90;;;;;;1941274;72;21067;-75
2021/12/11 07:31:47;;;;;;;6.53;5.80;;;3.10;99.90;;;;;;1930271;72;21123;-75
2021/12/11 07:34:14;;;;;;;5.83;5.30;;;3.10;99.90;;;;;;1931601;72;21059;-80
2021/12/11 07:36:40;;;;;;;6.05;5.55;;;3.10;99.90;;;;;;1933233;73;21166;-77
2021/12/11 07:39:06;;;;;;;8.58;6.50;;;3.20;99.90;;;;;;1942213;72;21057;-77
2021/12/11 07:41:32;;;;;;;6.05;5.45;;;3.10;99.90;;;;;;1930010;72;21184;-77
2021/12/11 07:43:58;;;;;;;7.25;6.22;;;3.20;99.90;;;;;;1939105;73;21130;-77
2021/12/11 07:46:24;;;;;;;7.08;5.72;;;3.20;99.90;;;;;;1931700;73;21062;-77
2021/12/11 07:48:50;;;;;;;7.67;6.10;;;3.20;99.90;;;;;;1932733;73;21223;-77
2021/12/11 07:51:16;;;;;;;7.53;6.70;;;3.20;99.90;;;;;;1931941;72;21107;-77
2021/12/11 07:53:42;;;;;;;7.28;6.60;;;3.10;99.90;;;;;;1925803;72;21137;-78
2021/12/11 07:56:09;;;;;;;9.88;6.33;;;3.20;99.90;;;;;;1947608;72;21126;-78
2021/12/11 07:58:35;;;;;;;9.33;6.50;;;3.20;99.90;;;;;;1938953;72;21461;-76
2021/12/11 08:01:01;;;;;;;6.12;5.42;;;3.20;99.90;;;;;;1937204;72;21129;-76
2021/12/11 08:03:27;;;;;;;8.58;6.80;;;3.20;99.90;;;;;;1931648;73;21070;-75
2021/12/11 08:05:54;;;;;;;10.08;6.70;;;3.20;99.90;;;;;;1934613;72;21062;-76
2021/12/11 08:08:20;;;;;;;8.03;7.30;;;3.20;99.90;;;;;;1944432;72;21067;-76
2021/12/11 08:10:46;;;;;;;10.50;7.60;;;3.20;99.90;;;;;;1923499;72;21128;-76
2021/12/11 08:13:12;;;;;;;8.60;7.12;;;3.20;99.90;;;;;;1936720;73;21079;-76
2021/12/11 08:15:38;;;;;;;8.53;7.70;;;3.20;99.90;;;;;;1928146;73;21120;-75
2021/12/11 08:18:04;;;;;;;8.73;7.75;;;3.30;99.90;;;;;;1935323;72;21462;-77
2021/12/11 08:20:30;;;;;;;7.62;6.92;;;3.30;99.90;;;;;;1943030;72;21457;-75
2021/12/11 08:22:56;;;;;;;8.78;7.00;;;3.30;99.90;;;;;;1923936;72;21460;-74
2021/12/11 08:25:25;;;;;;;9.35;7.30;;;3.30;99.90;;;;;;1926608;73;21155;-75
2021/12/11 08:27:50;;;;;;;9.48;7.42;;;3.30;99.90;;;;;;1937385;72;21503;-76
2021/12/11 08:30:16;;;;;;;14.75;7.22;;;3.30;99.90;;;;;;1929280;72;21557;-76
2021/12/11 08:32:43;;;;;;;7.95;7.05;;;3.30;99.90;;;;;;1934383;72;21520;-75
2021/12/11 08:35:09;;;;;;;7.58;6.75;;;3.30;99.90;;;;;;1946471;72;21514;-75
2021/12/11 08:37:36;;;;;;;16.20;7.15;;;3.30;99.90;;;;;;1943830;72;21195;-76
2021/12/11 08:40:02;;;;;;;8.55;7.65;;;3.20;99.90;;;;;;1932986;73;21129;-75
2021/12/11 08:42:28;;;;;;;11.50;8.08;;;3.30;99.90;;;;;;1939182;73;21061;-76
2021/12/11 08:45:04;;;;;;;10.25;8.05;;;3.30;99.90;;;;;;1939873;73;21074;-75
2021/12/11 08:47:22;;;;;;;10.85;8.13;;;3.40;99.90;;;;;;1911274;73;21034;-76
2021/12/11 08:49:48;;;;;;;11.60;8.30;;;3.40;99.90;;;;;;1930983;73;21065;-75
2021/12/11 08:52:14;;;;;;;8.83;7.67;;;3.40;99.90;;;;;;1930915;73;21070;-75
2021/12/11 08:54:40;;;;;;;11.28;8.48;;;3.40;99.90;;;;;;1925437;73;21069;-74
2021/12/11 08:57:06;;;;;;;9.65;7.70;;;3.50;99.90;;;;;;1928464;72;21139;-74
2021/12/11 08:59:32;;;;;;;9.53;8.03;;;3.50;99.90;;;;;;1923372;72;21078;-73
2021/12/11 09:01:58;;;;;;;8.70;7.70;;;3.40;99.90;;;;;;1923026;72;21434;-74
2021/12/11 09:04:25;;;;;;;15.05;8.40;;;3.40;99.90;;;;;;1923043;73;21531;-73
2021/12/11 09:06:51;;;;;;;13.43;9.18;;;3.40;99.90;;;;;;1931028;72;21497;-74
2021/12/11 09:09:17;;;;;;;11.75;8.78;;;3.40;99.90;;;;;;1930645;72;21053;-75
2021/12/11 09:11:43;;;;;;;9.78;7.97;;;3.50;99.90;;;;;;1916619;73;21057;-76
2021/12/11 09:14:09;;;;;;;15.60;8.38;;;3.40;99.90;;;;;;1925868;72;21057;-77
2021/12/11 09:16:35;;;;;;;10.03;8.00;;;3.40;99.90;;;;;;1932957;72;21039;-75
2021/12/11 09:19:01;;;;;;;10.85;8.25;;;3.50;99.90;;;;;;1933822;73;21059;-74
2021/12/11 09:21:27;;;;;;;9.83;7.90;;;3.50;99.90;;;;;;1932994;72;21070;-75
2021/12/11 09:23:53;;;;;;;10.38;8.35;;;3.60;99.90;;;;;;1932033;73;21124;-75
2021/12/11 09:26:23;;;;;;;12.53;8.08;;;3.60;99.90;;;;;;1936095;72;21209;-74
2021/12/11 09:28:47;;;;;;;9.53;8.18;;;3.60;99.90;;;;;;1945976;72;21172;-75
2021/12/11 09:31:14;;;;;;;10.13;8.48;;;3.60;99.90;;;;;;1932426;72;21065;-74
2021/12/11 09:33:40;;;;;;;11.15;8.30;;;3.60;99.90;;;;;;1929824;72;21127;-76
2021/12/11 09:36:06;;;;;;;8.95;7.08;;;3.60;99.90;;;;;;1942223;73;21066;-76
2021/12/11 09:38:32;;;;;;;8.93;7.55;;;3.60;99.90;;;;;;1929173;73;21053;-74
2021/12/11 09:40:59;;;;;;;12.37;7.90;;;3.60;99.90;;;;;;1932277;73;21124;-73
2021/12/11 09:43:25;;;;;;;8.88;7.15;;;3.60;99.90;;;;;;1931477;72;21065;-73
2021/12/11 09:45:51;;;;;;;10.18;8.35;;;3.70;99.90;;;;;;1918937;73;21062;-75
2021/12/11 09:48:17;;;;;;;11.43;8.60;;;3.70;99.90;;;;;;1936869;72;21259;-76
2021/12/11 09:50:49;;;;;;;12.23;9.23;;;3.80;99.90;;;;;;1939694;72;21067;-76
2021/12/11 09:53:11;;;;;;;42.80;9.15;;;3.90;99.90;;;;;;1937610;73;21120;-75
2021/12/11 09:55:39;;;;;;;13.70;7.92;;;3.90;99.90;;;;;;1940788;73;21040;-76
2021/12/11 09:58:05;;;;;;;10.28;8.80;;;3.90;99.90;;;;;;1929818;72;21091;-72
2021/12/11 10:00:31;;;;;;;15.10;9.40;;;3.90;99.90;;;;;;1938297;72;21140;-76
2021/12/11 10:02:57;;;;;;;10.98;8.80;;;4.00;99.90;;;;;;1917479;72;21115;-75
2021/12/11 10:05:31;;;;;;;11.00;8.53;;;4.10;99.90;;;;;;1927999;73;21066;-74
2021/12/11 10:10:41;;;;;;;10.88;8.10;;;4.30;99.90;;;;;;1928968;72;21108;-74
2021/12/11 10:13:07;;;;;;;16.35;7.85;;;4.30;99.90;;;;;;1942615;72;21628;-73
2021/12/11 10:15:39;;;;;;;14.78;8.75;;;4.40;99.90;;;;;;1939889;73;21482;-70
2021/12/11 10:18:04;;;;;;;9.98;6.65;;;4.30;99.90;;;;;;1931702;72;21098;-73
2021/12/11 10:20:30;;;;;;;7.72;6.72;;;4.40;99.90;;;;;;1925599;73;21039;-72
2021/12/11 10:22:56;;;;;;;11.22;6.83;;;4.40;99.90;;;;;;1942066;72;21254;-72
2021/12/11 10:25:22;;;;;;;7.30;5.50;;;4.40;99.90;;;;;;1926806;73;21262;-73
2021/12/11 10:27:49;;;;;;;7.62;5.78;;;4.40;99.90;;;;;;1929739;73;21513;-72
2021/12/11 10:30:15;;;;;;;6.87;5.65;;;4.40;99.90;;;;;;1940943;72;21399;-73
2021/12/11 10:32:41;;;;;;;6.10;4.60;;;4.50;99.90;;;;;;1944851;73;21067;-73
2021/12/11 10:35:07;;;;;;;3.98;3.58;;;4.50;99.90;;;;;;1909507;73;21508;-72
2021/12/11 10:37:35;;;;;;;5.12;4.37;;;4.50;99.90;;;;;;1935346;72;21197;-72
2021/12/11 10:40:01;;;;;;;5.35;4.75;;;4.50;99.90;;;;;;1926411;72;21145;-74
2021/12/11 10:42:27;;;;;;;4.67;4.22;;;4.60;99.90;;;;;;1936367;72;21526;-73
2021/12/11 10:44:53;;;;;;;6.28;4.72;;;4.70;99.90;;;;;;1928758;72;21467;-72
2021/12/11 10:47:19;;;;;;;6.42;4.22;;;4.60;99.90;;;;;;1945014;73;21501;-77
2021/12/11 10:49:45;;;;;;;6.30;3.80;;;4.70;99.90;;;;;;1941533;72;21450;-74
2021/12/11 10:52:11;;;;;;;5.97;4.65;;;4.60;99.90;;;;;;1921859;73;21132;-75
2021/12/11 10:54:38;;;;;;;6.60;4.53;;;4.70;99.90;;;;;;1944449;73;21148;-76
2021/12/11 10:57:04;;;;;;;6.12;4.28;;;4.80;99.90;;;;;;1931225;71;22454;-77
2021/12/11 10:59:30;;;;;;;10.20;3.62;;;4.80;99.90;;;;;;1929832;73;21165;-77
2021/12/11 11:01:56;;;;;;;4.30;3.90;;;4.80;99.90;;;;;;1943277;71;21114;-77
2021/12/11 11:04:22;;;;;;;5.53;3.50;;;4.70;99.90;;;;;;1928456;72;21058;-77
2021/12/11 11:06:48;;;;;;;6.10;4.22;;;4.70;99.90;;;;;;1929326;72;21149;-78
2021/12/11 11:09:15;;;;;;;4.22;3.80;;;4.70;99.90;;;;;;1922011;73;21536;-81
2021/12/11 11:11:42;;;;;;;4.50;3.77;;;4.70;99.90;;;;;;1930244;72;21073;-82
2021/12/11 11:14:08;;;;;;;4.42;3.60;;;4.80;99.90;;;;;;1943997;72;21133;-82
2021/12/11 11:16:34;;;;;;;4.95;3.87;;;4.80;99.90;;;;;;1936616;72;21075;-82
2021/12/11 11:19:14;;;;;;;7.30;3.95;;;4.80;99.90;;;;;;1942516;73;21074;-87
2021/12/11 11:21:31;;;;;;;4.62;4.20;;;4.80;99.90;;;;;;1923474;72;21096;-91
2021/12/11 11:23:55;;;;;;;6.15;4.60;;;4.90;99.90;;;;;;1918779;72;21088;-78
2021/12/11 11:26:22;;;;;;;5.53;4.37;;;4.90;99.90;;;;;;1935242;73;21050;-84
2021/12/11 11:28:48;;;;;;;5.15;4.00;;;5.00;99.90;;;;;;1929098;73;21071;-82
2021/12/11 11:31:14;;;;;;;5.00;3.52;;;5.10;99.90;;;;;;1936383;72;21208;-82
2021/12/11 11:33:40;;;;;;;6.87;3.87;;;5.10;99.90;;;;;;1931812;72;21070;-83
2021/12/11 11:36:07;;;;;;;3.98;3.58;;;5.00;99.90;;;;;;1938554;72;21101;-79
2021/12/11 11:38:33;;;;;;;6.85;3.75;;;5.10;99.90;;;;;;1934928;73;21038;-84
2021/12/11 11:40:59;;;;;;;4.95;3.20;;;4.90;99.90;;;;;;1934987;72;21063;-83
2021/12/11 11:43:26;;;;;;;3.65;3.27;;;5.10;99.90;;;;;;1930479;71;21131;-81
2021/12/11 11:45:53;;;;;;;3.75;3.35;;;5.00;99.90;;;;;;1934417;73;21257;-83
2021/12/11 11:48:19;;;;;;;6.00;3.20;;;5.00;99.90;;;;;;1923105;72;21069;-78
2021/12/11 11:50:45;;;;;;;8.95;3.60;;;5.10;99.90;;;;;;1926963;73;21127;-77
2021/12/11 11:53:11;;;;;;;3.98;3.55;;;5.20;99.90;;;;;;1927953;73;21132;-78
2021/12/11 11:55:38;;;;;;;3.45;3.10;;;5.20;99.90;;;;;;1930344;73;21079;-77
2021/12/11 11:58:04;;;;;;;3.20;2.87;;;5.00;99.90;;;;;;1923518;72;21050;-79
2021/12/11 12:00:30;;;;;;;5.70;4.03;;;5.00;99.90;;;;;;1930108;72;21128;-79
2021/12/11 12:02:56;;;;;;;8.95;4.03;;;4.90;99.90;;;;;;1943091;72;21043;-79
2021/12/11 12:05:22;;;;;;;5.87;3.87;;;4.80;99.90;;;;;;1932220;73;21054;-77
2021/12/11 12:07:48;;;;;;;4.12;3.47;;;4.80;99.90;;;;;;1932673;72;21127;-77
2021/12/11 12:10:14;;;;;;;3.30;2.52;;;5.00;99.90;;;;;;1915092;73;21059;-77
2021/12/11 12:12:41;;;;;;;5.60;3.20;;;5.30;99.90;;;;;;1934077;72;22415;-77
2021/12/11 12:15:07;;;;;;;4.75;3.58;;;6.00;99.90;;;;;;1929218;72;21255;-76
2021/12/11 12:17:33;;;;;;;6.40;3.33;;;7.00;99.90;;;;;;1937891;72;21011;-76
2021/12/11 12:19:59;;;;;;;3.50;2.95;;;7.30;99.90;;;;;;1944162;73;21123;-75
2021/12/11 12:22:25;;;;;;;9.13;3.00;;;7.20;99.90;;;;;;1938114;73;21110;-75
2021/12/11 12:24:51;;;;;;;5.00;2.98;;;7.00;99.90;;;;;;1937122;72;21439;-77
2021/12/11 12:27:17;;;;;;;3.98;2.72;;;6.60;99.90;;;;;;1929711;73;21579;-76
2021/12/11 12:29:43;;;;;;;7.50;3.00;;;6.10;99.90;;;;;;1929189;74;21539;-77
2021/12/11 12:32:10;;;;;;;4.62;3.30;;;5.90;99.90;;;;;;1921340;73;21027;-78
2021/12/11 12:34:36;;;;;;;10.68;3.20;;;5.90;99.90;;;;;;1932240;72;21064;-78
2021/12/11 12:37:02;;;;;;;3.92;3.45;;;5.90;99.90;;;;;;1940103;73;21120;-79
2021/12/11 12:39:33;;;;;;;5.80;3.37;;;5.70;99.90;;;;;;1927209;73;21058;-78
2021/12/11 12:42:03;;;;;;;7.33;3.50;;;5.60;99.90;;;;;;1924595;72;21580;-77
2021/12/11 12:44:24;;;;;;;5.53;3.70;;;5.60;99.90;;;;;;1916909;72;21156;-77
2021/12/11 12:46:50;;;;;;;4.75;3.33;;;5.60;99.90;;;;;;1929919;72;21063;-79
2021/12/11 12:49:16;;;;;;;3.92;3.52;;;5.40;99.90;;;;;;1943406;73;21059;-78
2021/12/11 12:51:42;;;;;;;6.25;3.80;;;5.20;99.90;;;;;;1941120;72;21180;-78
2021/12/11 12:54:08;;;;;;;4.10;3.60;;;5.00;99.90;;;;;;1924671;73;21092;-78
2021/12/11 12:56:34;;;;;;;5.28;3.12;;;5.00;99.90;;;;;;1944184;72;21133;-77
2021/12/11 12:59:00;;;;;;;5.67;3.52;;;5.10;99.90;;;;;;1929956;73;21063;-79
2021/12/11 13:01:26;;;;;;;4.83;3.35;;;5.10;99.90;;;;;;1942437;73;21064;-78
2021/12/11 13:03:53;;;;;;;4.92;3.65;;;5.00;99.90;;;;;;1935407;71;21217;-78
2021/12/11 13:06:19;;;;;;;14.30;3.67;;;5.10;99.90;;;;;;1933605;71;21401;-78
2021/12/11 13:08:45;;;;;;;3.00;2.70;;;5.10;99.90;;;;;;1926734;73;21490;-76